createdAt,value
2022-12-12T00:02:06.183Z,1.05
2022-12-12T00:05:09.212Z,0.95
2022-12-12T00:08:10.806Z,1.03
2022-12-12T00:11:13.051Z,1.05
2022-12-12T00:14:14.559Z,1.04
2022-12-12T00:17:15.964Z,0.96
2022-12-12T00:20:17.477Z,0.96
2022-12-12T00:23:18.937Z,0.92
2022-12-12T00:26:24.379Z,0.96
2022-12-12T00:29:25.821Z,0.92
2022-12-12T00:32:27.457Z,0.87
2022-12-12T00:35:28.853Z,0.93
2022-12-12T00:38:30.480Z,0.93
2022-12-12T00:41:31.884Z,0.96
2022-12-12T00:44:33.334Z,0.92
2022-12-12T00:47:35.088Z,0.87
2022-12-12T00:50:36.814Z,0.77
2022-12-12T00:53:38.455Z,0.75
2022-12-12T00:56:40.492Z,0.78
2022-12-12T00:59:41.976Z,0.83
2022-12-12T01:02:43.610Z,0.87
2022-12-12T01:05:45.068Z,0.76
2022-12-12T01:08:46.538Z,0.74
2022-12-12T01:11:47.927Z,0.71
2022-12-12T01:14:49.400Z,0.68
2022-12-12T01:17:52.788Z,0.63
2022-12-12T01:20:54.340Z,0.64
2022-12-12T01:23:55.723Z,0.60
2022-12-12T01:26:57.129Z,0.60
2022-12-12T01:30:01.729Z,0.57
2022-12-12T01:33:03.762Z,0.56
2022-12-12T01:36:05.803Z,0.50
2022-12-12T01:39:07.263Z,0.46
2022-12-12T01:42:18.614Z,0.46
2022-12-12T01:45:57.277Z,0.49
2022-12-12T01:49:17.027Z,0.49
2022-12-12T01:52:24.974Z,0.50
2022-12-12T01:55:26.386Z,0.51
2022-12-12T01:58:29.805Z,0.53
2022-12-12T02:01:31.979Z,0.49
2022-12-12T02:04:33.681Z,0.45
2022-12-12T02:07:35.233Z,0.45
2022-12-12T02:10:36.872Z,0.44
2022-12-12T02:13:38.653Z,0.39
2022-12-12T02:17:24.179Z,0.34
2022-12-12T02:20:50.468Z,0.23
2022-12-12T02:24:10.210Z,0.15
2022-12-12T02:27:48.864Z,0.17
2022-12-12T02:31:12.529Z,0.21
2022-12-12T02:34:22.302Z,0.23
2022-12-12T02:37:39.353Z,0.21
2022-12-12T02:40:52.428Z,0.14
2022-12-12T02:44:10.855Z,0.08
2022-12-12T02:47:18.669Z,-0.07
2022-12-12T02:50:23.374Z,-0.07
2022-12-12T02:53:24.828Z,-0.13
2022-12-12T02:56:45.005Z,-0.23
2022-12-12T02:59:52.225Z,-0.29
2022-12-12T03:03:23.309Z,-0.36
2022-12-12T03:07:08.491Z,-0.36
2022-12-12T03:10:28.148Z,-0.35
2022-12-12T03:13:48.604Z,-0.38
2022-12-12T03:17:13.780Z,-0.43
2022-12-12T03:20:37.083Z,-0.46
2022-12-12T03:23:46.510Z,-0.52
2022-12-12T03:26:55.707Z,-0.53
2022-12-12T03:30:06.264Z,-0.47
2022-12-12T03:33:33.008Z,-0.46
2022-12-12T03:36:44.661Z,-0.35
2022-12-12T03:39:52.580Z,-0.34
2022-12-12T03:43:22.915Z,-0.28
2022-12-12T03:46:32.536Z,-0.31
2022-12-12T03:49:46.259Z,-0.37
2022-12-12T03:53:02.594Z,-0.38
2022-12-12T03:56:22.630Z,-0.37
2022-12-12T03:59:31.320Z,-0.43
2022-12-12T04:02:47.353Z,-0.45
2022-12-12T04:06:17.458Z,-0.45
2022-12-12T04:09:38.697Z,-0.47
2022-12-12T04:13:03.459Z,-0.63
2022-12-12T04:16:08.106Z,-0.79
2022-12-12T04:19:41.306Z,-0.92
2022-12-12T04:23:11.792Z,-1.01
2022-12-12T04:26:39.215Z,-1.10
2022-12-12T04:29:44.997Z,-0.99
2022-12-12T04:33:04.659Z,-1.01
2022-12-12T04:36:10.276Z,-1.12
2022-12-12T04:39:14.915Z,-1.02
2022-12-12T04:42:21.459Z,-0.94
2022-12-12T04:45:29.161Z,-0.92
2022-12-12T04:48:55.946Z,-0.81
2022-12-12T04:52:05.150Z,-0.71
2022-12-12T04:55:12.726Z,-0.67
2022-12-12T04:58:14.891Z,-0.73
2022-12-12T05:01:25.317Z,-0.72
2022-12-12T05:04:36.066Z,-0.69
2022-12-12T05:07:40.687Z,-0.59
2022-12-12T05:10:49.888Z,-0.59
2022-12-12T05:13:51.322Z,-0.68
2022-12-12T05:16:55.618Z,-0.62
2022-12-12T05:19:57.492Z,-0.63
2022-12-12T05:22:59.156Z,-0.70
2022-12-12T05:26:06.500Z,-0.74
2022-12-12T05:29:08.025Z,-0.72
2022-12-12T05:32:09.480Z,-0.68
2022-12-12T05:35:11.352Z,-0.66
2022-12-12T05:38:13.070Z,-0.63
2022-12-12T05:41:15.304Z,-0.32
2022-12-12T05:44:16.709Z,-0.27
2022-12-12T05:47:18.779Z,-0.36
2022-12-12T05:50:20.176Z,-0.44
2022-12-12T05:53:21.725Z,-0.49
2022-12-12T05:56:23.205Z,-0.46
2022-12-12T05:59:24.643Z,-0.48
2022-12-12T06:02:26.068Z,-0.50
2022-12-12T06:05:27.546Z,-0.54
2022-12-12T06:08:29.371Z,-0.50
2022-12-12T06:11:30.894Z,-0.53
2022-12-12T06:14:32.372Z,-0.56
2022-12-12T06:17:33.844Z,-0.72
2022-12-12T06:20:35.783Z,-0.75
2022-12-12T06:23:38.526Z,-0.65
2022-12-12T06:26:40.053Z,-0.67
2022-12-12T06:29:41.459Z,-0.78
2022-12-12T06:32:42.918Z,-0.72
2022-12-12T06:35:44.317Z,-0.71
2022-12-12T06:38:45.734Z,-0.83
2022-12-12T06:41:47.202Z,-0.89
2022-12-12T06:44:48.590Z,-0.90
2022-12-12T06:47:50.950Z,-0.86
2022-12-12T06:50:52.359Z,-0.81
2022-12-12T06:53:53.936Z,-0.82
2022-12-12T06:56:55.488Z,-0.82
2022-12-12T06:59:56.916Z,-0.76
2022-12-12T07:02:58.385Z,-0.79
2022-12-12T07:06:00.430Z,-0.71
2022-12-12T07:09:03.009Z,-0.80
2022-12-12T07:12:04.702Z,-0.73
2022-12-12T07:15:06.516Z,-0.66
2022-12-12T07:18:08.001Z,-0.69
2022-12-12T07:21:12.656Z,-0.71
2022-12-12T07:24:15.613Z,-0.64
2022-12-12T07:27:21.499Z,-0.61
2022-12-12T07:30:23.253Z,-0.57
2022-12-12T07:33:29.758Z,-0.51
2022-12-12T07:36:37.269Z,-0.54
2022-12-12T07:39:38.711Z,-0.46
2022-12-12T07:42:40.136Z,-0.42
2022-12-12T07:45:44.866Z,-0.38
2022-12-12T07:48:46.631Z,-0.32
2022-12-12T07:51:49.323Z,-0.40
2022-12-12T07:54:50.999Z,-0.59
2022-12-12T07:57:53.169Z,-0.62
2022-12-12T08:00:54.557Z,-0.62
2022-12-12T08:03:56.439Z,-0.54
2022-12-12T08:07:04.062Z,-0.42
2022-12-12T08:10:09.477Z,-0.44
2022-12-12T08:13:10.904Z,-0.50
2022-12-12T08:16:15.705Z,-0.61
2022-12-12T08:19:17.237Z,-0.63
2022-12-12T08:22:19.188Z,-0.55
2022-12-12T08:25:20.611Z,-0.53
2022-12-12T08:28:22.024Z,-0.46
2022-12-12T08:31:24.006Z,-0.31
2022-12-12T08:34:25.657Z,-0.34
2022-12-12T08:37:27.069Z,-0.45
2022-12-12T08:40:28.496Z,-0.39
2022-12-12T08:43:29.887Z,-0.42
2022-12-12T08:46:31.331Z,-0.34
2022-12-12T08:49:32.919Z,-0.31
2022-12-12T08:52:34.441Z,-0.40
2022-12-12T08:55:35.998Z,-0.36
2022-12-12T08:58:37.405Z,-0.21
2022-12-12T09:01:39.320Z,-0.16
2022-12-12T09:04:41.026Z,-0.19
2022-12-12T09:07:42.424Z,-0.28
2022-12-12T09:10:43.879Z,-0.21
2022-12-12T09:13:46.333Z,-0.27
2022-12-12T09:16:47.772Z,-0.17
2022-12-12T09:19:49.168Z,-0.19
2022-12-12T09:22:50.573Z,-0.15
2022-12-12T09:25:52.712Z,-0.13
2022-12-12T09:28:54.537Z,-0.10
2022-12-12T09:31:56.039Z,-0.02
2022-12-12T09:34:57.494Z,0.10
2022-12-12T09:37:58.946Z,0.03
2022-12-12T09:41:09.382Z,-0.03
2022-12-12T09:44:15.955Z,-0.05
2022-12-12T09:47:43.186Z,-0.12
2022-12-12T09:50:48.557Z,-0.06
2022-12-12T09:53:51.446Z,-0.02
2022-12-12T09:57:03.768Z,-0.03
2022-12-12T10:00:10.603Z,0.11
2022-12-12T10:03:22.932Z,0.14
2022-12-12T10:06:41.221Z,0.08
2022-12-12T10:19:29.753Z,0.07
2022-12-12T10:22:42.889Z,0.48
2022-12-12T10:25:53.920Z,0.55
2022-12-12T10:29:28.607Z,0.85
2022-12-12T10:33:02.431Z,1.12
2022-12-12T10:36:23.010Z,1.25
2022-12-12T10:39:55.589Z,1.39
2022-12-12T10:43:17.263Z,1.44
2022-12-12T10:46:24.390Z,1.35
2022-12-12T10:49:26.130Z,1.54
2022-12-12T10:52:27.559Z,1.47
2022-12-12T10:55:46.273Z,1.45
2022-12-12T10:58:59.056Z,1.48
2022-12-12T11:02:10.112Z,1.49
2022-12-12T11:05:27.886Z,1.61
2022-12-12T11:08:31.895Z,1.65
2022-12-12T11:11:33.532Z,1.75
2022-12-12T11:14:47.999Z,1.78
2022-12-12T11:17:49.798Z,1.78
2022-12-12T11:21:07.621Z,1.64
2022-12-12T11:24:14.631Z,1.77
2022-12-12T11:27:30.532Z,1.84
2022-12-12T11:30:37.889Z,2.05
2022-12-12T11:33:54.539Z,2.28
2022-12-12T11:36:59.220Z,2.35
2022-12-12T11:40:00.802Z,2.47
2022-12-12T11:43:31.500Z,2.39
2022-12-12T11:46:33.633Z,2.46
2022-12-12T11:49:46.683Z,2.62
2022-12-12T11:52:49.546Z,2.72
2022-12-12T11:56:05.223Z,2.87
2022-12-12T11:59:15.567Z,2.91
2022-12-12T12:03:10.331Z,2.88
2022-12-12T12:06:25.115Z,2.65
2022-12-12T12:09:58.908Z,2.66
2022-12-12T12:13:12.459Z,2.59
2022-12-12T12:16:46.946Z,2.48
2022-12-12T12:20:00.542Z,2.53
2022-12-12T12:23:17.497Z,2.38
2022-12-12T12:26:49.384Z,2.42
2022-12-12T12:30:22.090Z,2.47
2022-12-12T12:33:29.146Z,2.49
2022-12-12T12:36:52.880Z,2.53
2022-12-12T12:40:07.685Z,2.45
2022-12-12T12:43:38.366Z,2.44
2022-12-12T12:46:50.692Z,2.47
2022-12-12T12:50:02.453Z,2.64
2022-12-12T12:53:37.267Z,2.56
2022-12-12T12:56:56.067Z,2.63
2022-12-12T13:00:03.585Z,2.72
2022-12-12T13:03:21.213Z,2.18
2022-12-12T13:06:46.389Z,2.07
2022-12-12T13:10:02.798Z,2.47
2022-12-12T13:13:19.539Z,2.56
2022-12-12T13:16:24.941Z,2.64
2022-12-12T13:19:35.685Z,2.81
2022-12-12T13:22:44.841Z,2.75
2022-12-12T13:25:56.922Z,2.61
2022-12-12T13:28:58.364Z,2.55
2022-12-12T13:32:08.970Z,2.50
2022-12-12T13:35:15.073Z,2.56
2022-12-12T13:38:35.715Z,2.27
2022-12-12T13:41:58.663Z,2.46
2022-12-12T13:45:31.756Z,2.67
2022-12-12T13:48:44.543Z,2.87
2022-12-12T13:51:47.997Z,2.87
2022-12-12T13:54:50.207Z,2.81
2022-12-12T13:57:58.852Z,2.77
2022-12-12T14:01:32.162Z,2.59
2022-12-12T14:04:36.369Z,2.47
2022-12-12T14:07:38.438Z,2.46
2022-12-12T14:10:45.780Z,2.44
2022-12-12T14:13:50.723Z,2.36
2022-12-12T14:16:55.084Z,2.29
2022-12-12T14:19:58.896Z,2.28
2022-12-12T14:23:10.153Z,2.21
2022-12-12T14:26:26.860Z,2.16
2022-12-12T14:29:31.680Z,2.08
2022-12-12T14:32:46.141Z,1.97
2022-12-12T14:35:59.494Z,1.88
2022-12-12T14:39:16.174Z,1.76
2022-12-12T14:43:19.778Z,1.78
2022-12-12T14:45:50.273Z,1.69
2022-12-12T14:49:05.933Z,1.66
2022-12-12T14:52:07.447Z,1.64
2022-12-12T14:55:15.745Z,1.62
2022-12-12T14:58:22.475Z,1.69
2022-12-12T15:01:40.741Z,1.62
2022-12-12T15:04:47.124Z,1.54
2022-12-12T15:07:58.453Z,1.53
2022-12-12T15:10:59.940Z,1.52
2022-12-12T15:14:02.726Z,1.53
2022-12-12T15:17:17.871Z,1.52
2022-12-12T15:20:25.579Z,1.45
2022-12-12T15:23:27.049Z,1.43
2022-12-12T15:26:30.072Z,1.38
2022-12-12T15:29:32.579Z,1.30
2022-12-12T15:32:34.099Z,1.24
2022-12-12T15:35:35.537Z,1.19
2022-12-12T15:38:36.995Z,1.12
2022-12-12T15:41:38.470Z,1.05
2022-12-12T15:44:44.107Z,1.01
2022-12-12T15:47:45.755Z,0.97
2022-12-12T15:50:57.225Z,0.97
2022-12-12T15:53:59.407Z,0.94
2022-12-12T15:57:00.915Z,0.98
2022-12-12T16:00:08.447Z,0.98
2022-12-12T16:03:09.790Z,0.96
2022-12-12T16:06:16.991Z,0.93
2022-12-12T16:09:25.633Z,0.87
2022-12-12T16:12:59.721Z,0.83
2022-12-12T16:16:01.485Z,0.71
2022-12-12T16:19:04.880Z,0.67
2022-12-12T16:22:19.999Z,0.56
2022-12-12T16:25:30.010Z,0.44
2022-12-12T16:28:31.673Z,0.33
2022-12-12T16:31:33.247Z,0.25
2022-12-12T16:34:34.702Z,0.22
2022-12-12T16:37:36.277Z,0.16
2022-12-12T16:40:37.864Z,0.10
2022-12-12T16:43:40.170Z,0.16
2022-12-12T16:46:41.570Z,0.21
2022-12-12T16:49:43.139Z,0.24
2022-12-12T16:52:44.640Z,0.17
2022-12-12T16:55:49.772Z,0.09
2022-12-12T16:58:53.171Z,0.06
2022-12-12T17:01:55.131Z,0.04
2022-12-12T17:04:56.531Z,0.08
2022-12-12T17:07:58.010Z,0.01
2022-12-12T17:11:10.109Z,0.03
2022-12-12T17:14:23.361Z,0.01
2022-12-12T17:17:24.772Z,-0.10
2022-12-12T17:20:27.409Z,-0.14
2022-12-12T17:23:39.913Z,-0.24
2022-12-12T17:26:41.402Z,-0.27
2022-12-12T17:29:42.796Z,-0.27
2022-12-12T17:36:05.426Z,-0.19
2022-12-12T17:39:06.860Z,-0.14
2022-12-12T17:42:08.382Z,-0.07
2022-12-12T17:45:10.888Z,-0.11
2022-12-12T17:48:12.294Z,-0.14
2022-12-12T17:51:20.041Z,-0.21
2022-12-12T17:54:21.530Z,-0.20
2022-12-12T17:57:25.351Z,-0.27
2022-12-12T18:00:27.016Z,-0.30
2022-12-12T18:03:28.451Z,-0.34
2022-12-12T18:06:33.116Z,-0.37
2022-12-12T18:09:35.529Z,-0.38
2022-12-12T18:12:37.007Z,-0.46
2022-12-12T18:15:38.509Z,-0.40
2022-12-12T18:18:40.585Z,-0.45
2022-12-12T18:25:03.708Z,-0.34
2022-12-12T18:28:05.259Z,-0.35
2022-12-12T18:31:07.029Z,-0.33
2022-12-12T18:34:08.524Z,-0.30
2022-12-12T18:37:09.964Z,-0.29
2022-12-12T18:40:11.867Z,-0.32
2022-12-12T18:43:13.457Z,-0.32
2022-12-12T18:46:17.843Z,-0.35
2022-12-12T18:49:19.518Z,-0.39
2022-12-12T18:52:20.927Z,-0.46
2022-12-12T18:55:26.056Z,-0.44
2022-12-12T18:58:27.492Z,-0.44
2022-12-12T19:01:31.732Z,-0.47
2022-12-12T19:04:33.383Z,-0.45
2022-12-12T19:07:34.788Z,-0.47
2022-12-12T19:10:37.725Z,-0.45
2022-12-12T19:13:39.900Z,-0.50
2022-12-12T19:16:42.548Z,-0.48
2022-12-12T19:19:45.388Z,-0.58
2022-12-12T19:22:47.218Z,-0.56
2022-12-12T19:25:49.097Z,-0.57
2022-12-12T19:28:52.272Z,-0.59
2022-12-12T19:31:58.420Z,-0.65
2022-12-12T19:35:00.131Z,-0.64
2022-12-12T19:38:01.571Z,-0.62
2022-12-12T19:41:05.100Z,-0.59
2022-12-12T19:44:08.893Z,-0.61
2022-12-12T19:47:10.702Z,-0.66
2022-12-12T19:50:12.832Z,-0.67
2022-12-12T19:53:15.555Z,-0.63
2022-12-12T19:56:20.056Z,-0.65
2022-12-12T19:59:21.501Z,-0.72
2022-12-12T20:02:23.012Z,-0.80
2022-12-12T20:05:24.675Z,-0.83
2022-12-12T20:08:26.700Z,-0.83
2022-12-12T20:11:29.662Z,-0.87
2022-12-12T20:14:34.084Z,-0.88
2022-12-12T20:17:35.524Z,-0.83
2022-12-12T20:20:38.590Z,-0.88
2022-12-12T20:23:46.762Z,-0.82
2022-12-12T20:26:48.537Z,-0.85
2022-12-12T20:29:50.229Z,-0.86
2022-12-12T20:32:52.624Z,-0.91
2022-12-12T20:35:54.051Z,-0.90
2022-12-12T20:38:57.125Z,-0.84
2022-12-12T20:41:58.556Z,-0.87
2022-12-12T20:45:00.470Z,-0.94
2022-12-12T20:48:07.368Z,-0.97
2022-12-12T20:51:31.070Z,-1.01
2022-12-12T20:54:32.912Z,-0.94
2022-12-12T20:57:34.311Z,-1.06
2022-12-12T21:00:38.019Z,-1.12
2022-12-12T21:03:40.124Z,-1.13
2022-12-12T21:06:44.555Z,-1.15
2022-12-12T21:09:46.189Z,-1.16
2022-12-12T21:12:47.738Z,-1.15
2022-12-12T21:15:49.167Z,-1.22
2022-12-12T21:18:52.900Z,-1.20
2022-12-12T21:21:55.116Z,-1.23
2022-12-12T21:24:56.571Z,-1.15
2022-12-12T21:27:58.363Z,-1.17
2022-12-12T21:30:59.873Z,-1.31
2022-12-12T21:34:01.420Z,-1.37
2022-12-12T21:37:03.013Z,-1.39
2022-12-12T21:40:05.046Z,-1.46
2022-12-12T21:43:06.757Z,-1.49
2022-12-12T21:46:14.273Z,-1.45
2022-12-12T21:49:28.559Z,-1.42
2022-12-12T21:52:30.101Z,-1.37
2022-12-12T21:55:31.589Z,-1.37
2022-12-12T21:58:34.109Z,-1.41
2022-12-12T22:01:36.111Z,-1.47
2022-12-12T22:04:37.630Z,-1.49
2022-12-12T22:07:39.320Z,-1.55
2022-12-12T22:10:40.831Z,-1.64
2022-12-12T22:13:42.934Z,-1.64
2022-12-12T22:16:44.843Z,-1.58
2022-12-12T22:19:46.877Z,-1.64
2022-12-12T22:22:48.273Z,-1.65
2022-12-12T22:25:49.653Z,-1.64
2022-12-12T22:28:52.708Z,-1.64
2022-12-12T22:31:54.155Z,-1.62
2022-12-12T22:34:57.998Z,-1.66
2022-12-12T22:37:59.536Z,-1.73
2022-12-12T22:41:01.126Z,-1.71
2022-12-12T22:44:04.860Z,-1.72
2022-12-12T22:47:06.322Z,-1.79
2022-12-12T22:50:08.283Z,-1.73
2022-12-12T22:53:09.684Z,-1.85
2022-12-12T22:56:11.846Z,-1.85
2022-12-12T22:59:13.514Z,-1.95
2022-12-12T23:02:18.868Z,-1.92
2022-12-12T23:05:26.003Z,-1.92
2022-12-12T23:08:27.443Z,-1.90
2022-12-12T23:11:30.581Z,-1.85
2022-12-12T23:14:32.005Z,-1.91
2022-12-12T23:17:34.466Z,-1.95
2022-12-12T23:20:35.865Z,-2.04
2022-12-12T23:23:38.589Z,-2.05
2022-12-12T23:26:40.420Z,-2.00
2022-12-12T23:29:42.707Z,-2.04
2022-12-12T23:32:44.255Z,-2.05
2022-12-12T23:35:47.855Z,-2.13
2022-12-12T23:38:53.635Z,-2.15
2022-12-12T23:41:55.254Z,-2.22
2022-12-12T23:44:56.654Z,-2.24
2022-12-12T23:47:58.165Z,-2.25
2022-12-12T23:50:59.699Z,-2.30
2022-12-12T23:54:03.413Z,-2.26
2022-12-12T23:57:04.866Z,-2.27
